Time;durP1;ratioP1;P1;durP2;ratioP2;P2;SDS_P1;SDS_P2;PMS_P1;PMS_P2;Temp;Humidity;BMP_temperature;BMP_pressure;BME280_temperature;BME280_humidity;BME280_pressure;Samples;Min_cycle;Max_cycle;Signal;HPM_P1;HPM_P2
2021/05/04 00:00:06;;;;;;;417.43;151.73;;;;;;;4.94;67.57;98821.53;5124477;27;20027;-62
2021/05/04 00:02:32;;;;;;;417.43;149.33;;;;;;;4.94;68.09;98813.91;5126654;27;20402;-61
2021/05/04 00:04:57;;;;;;;425.63;146.47;;;;;;;4.84;68.64;98805.38;5124770;27;20055;-60
2021/05/04 00:07:22;;;;;;;418.47;152.50;;;;;;;4.88;68.70;98806.28;5124120;27;20617;-61
2021/05/04 00:09:48;;;;;;;425.63;158.00;;;;;;;4.81;68.33;98799.44;5124727;27;20038;-62
2021/05/04 00:12:13;;;;;;;418.47;150.03;;;;;;;4.81;68.42;98797.75;5126344;27;20039;-62
2021/05/04 00:14:39;;;;;;;417.47;155.17;;;;;;;4.82;68.94;98796.06;5123250;27;20035;-60
2021/05/04 00:17:05;;;;;;;414.17;147.30;;;;;;;4.78;68.80;98796.88;5123776;28;20041;-62
2021/05/04 00:19:31;;;;;;;418.33;146.30;;;;;;;4.74;69.03;98793.47;5125916;28;20031;-62
2021/05/04 00:21:57;;;;;;;416.10;148.30;;;;;;;4.70;69.21;98786.69;5124756;28;20111;-62
2021/05/04 00:24:22;;;;;;;412.47;141.00;;;;;;;4.68;69.51;98787.50;5125526;28;20119;-62
2021/05/04 00:26:48;;;;;;;415.40;143.20;;;;;;;4.59;69.74;98790.81;5121132;28;20032;-62
2021/05/04 00:29:13;;;;;;;413.50;141.90;;;;;;;4.59;69.80;98789.13;5126399;28;20467;-61
2021/05/04 00:31:39;;;;;;;419.70;151.43;;;;;;;4.54;69.74;98788.25;5121860;28;20176;-62
2021/05/04 00:34:04;;;;;;;416.00;142.07;;;;;;;4.48;70.20;98787.38;5124784;28;20026;-62
2021/05/04 00:36:29;;;;;;;416.17;142.50;;;;;;;4.46;69.87;98779.72;5123228;28;20105;-63
2021/05/04 00:38:56;;;;;;;412.77;144.33;;;;;;;4.46;69.98;98777.19;5125992;28;20070;-62
2021/05/04 00:41:21;;;;;;;415.37;144.80;;;;;;;4.44;70.25;98778.03;5122900;28;20360;-61
2021/05/04 00:43:48;;;;;;;415.03;144.93;;;;;;;4.39;70.90;98772.06;5123122;28;20035;-61
2021/05/04 00:46:13;;;;;;;415.27;141.80;;;;;;;4.42;70.55;98772.94;5123135;28;20352;-61
2021/05/04 00:48:38;;;;;;;413.77;139.63;;;;;;;4.40;70.39;98764.47;5108957;28;20084;-62
2021/05/04 00:51:04;;;;;;;413.93;139.70;;;;;;;4.39;70.45;98751.75;5124012;28;20023;-62
2021/05/04 00:53:30;;;;;;;427.00;151.83;;;;;;;4.40;70.46;98746.69;5122966;28;20149;-62
2021/05/04 00:55:58;;;;;;;413.90;141.70;;;;;;;4.36;70.10;98742.44;5126156;28;20142;-62
2021/05/04 00:58:24;;;;;;;411.57;137.37;;;;;;;4.31;70.16;98745.78;5122615;28;20031;-60
2021/05/04 01:00:49;;;;;;;412.93;139.80;;;;;;;4.27;70.23;98741.50;5124275;28;20027;-61
2021/05/04 01:03:16;;;;;;;411.97;136.20;;;;;;;4.23;70.60;98740.66;5123329;28;20038;-62
2021/05/04 01:05:41;;;;;;;412.57;139.73;;;;;;;4.21;70.88;98727.09;5127657;27;20403;-60
2021/05/04 01:08:07;;;;;;;423.30;146.33;;;;;;;4.13;71.37;98728.72;5123459;27;20032;-60
2021/05/04 01:10:32;;;;;;;414.13;139.67;;;;;;;4.09;71.21;98719.38;5128799;27;20368;-60
2021/05/04 01:12:58;;;;;;;414.80;140.87;;;;;;;4.07;71.54;98714.28;5108582;27;20035;-61
2021/05/04 01:15:24;;;;;;;410.20;137.30;;;;;;;3.96;71.68;98702.34;5126458;27;20115;-61
2021/05/04 01:17:50;;;;;;;413.37;138.97;;;;;;;3.97;72.11;98710.00;5126507;27;20403;-61
2021/05/04 01:20:15;;;;;;;410.70;135.70;;;;;;;3.94;71.64;98709.13;5112127;27;20027;-61
2021/05/04 01:22:41;;;;;;;412.10;138.20;;;;;;;3.91;72.27;98704.84;5125370;27;20396;-61
2021/05/04 01:25:07;;;;;;;412.27;135.03;;;;;;;3.91;72.17;98704.84;5126558;27;20035;-62
2021/05/04 01:27:33;;;;;;;408.93;133.43;;;;;;;3.95;71.88;98709.13;5127473;27;20049;-62
2021/05/04 01:29:58;;;;;;;408.27;131.83;;;;;;;3.86;71.90;98700.59;5128049;27;20035;-62
2021/05/04 01:32:24;;;;;;;408.73;130.87;;;;;;;3.85;72.06;98703.97;5124447;27;20034;-62
2021/05/04 01:34:50;;;;;;;407.63;133.47;;;;;;;3.83;72.50;98706.47;5125914;27;20031;-62
2021/05/04 01:37:15;;;;;;;409.43;134.33;;;;;;;3.80;72.60;98696.31;5127182;27;20039;-62
2021/05/04 01:39:49;;;;;;;409.50;134.73;;;;;;;3.83;72.35;98696.34;5127586;27;20027;-62
2021/05/04 01:42:17;;;;;;;407.50;130.03;;;;;;;3.79;72.05;98694.63;5128300;27;20023;-62
2021/05/04 01:44:43;;;;;;;407.17;128.77;;;;;;;3.79;72.24;98691.22;5126156;27;20042;-62
2021/05/04 01:47:09;;;;;;;410.83;136.63;;;;;;;3.76;72.21;98694.59;5123542;27;20049;-62
2021/05/04 01:49:34;;;;;;;417.20;137.77;;;;;;;3.72;72.53;98682.72;5110958;27;20027;-62
2021/05/04 01:52:01;;;;;;;406.13;128.80;;;;;;;3.66;72.70;98683.50;5125750;27;20031;-62
2021/05/04 01:54:27;;;;;;;407.13;130.60;;;;;;;3.63;72.64;98675.88;5128316;27;20055;-62
2021/05/04 01:56:54;;;;;;;410.60;134.33;;;;;;;3.58;73.54;98664.84;5125718;27;20028;-60
2021/05/04 01:59:21;;;;;;;415.83;140.43;;;;;;;3.56;73.18;98656.41;5125389;27;20047;-60
2021/05/04 02:01:47;;;;;;;403.57;126.07;;;;;;;3.53;73.24;98655.50;5125118;27;20027;-61
2021/05/04 02:04:13;;;;;;;410.70;129.53;;;;;;;3.49;73.68;98654.63;5124812;27;20046;-61
2021/05/04 02:06:38;;;;;;;408.63;132.80;;;;;;;3.48;73.54;98650.38;5128099;27;20074;-61
2021/05/04 02:09:08;;;;;;;404.77;126.53;;;;;;;3.52;73.70;98657.19;5127229;27;20070;-61
2021/05/04 02:11:35;;;;;;;402.63;125.70;;;;;;;3.44;73.65;98653.72;5126684;27;20101;-61
2021/05/04 02:14:00;;;;;;;407.83;131.10;;;;;;;3.36;74.12;98650.28;5126409;27;20062;-61
2021/05/04 02:16:27;;;;;;;412.63;134.53;;;;;;;3.36;74.21;98645.22;5124539;27;20063;-61
2021/05/04 02:18:54;;;;;;;406.00;127.30;;;;;;;3.32;74.42;98646.00;5126387;27;20057;-61
2021/05/04 02:21:19;;;;;;;407.43;130.10;;;;;;;3.31;74.23;98639.25;5128406;27;20038;-60
2021/05/04 02:23:45;;;;;;;409.43;131.47;;;;;;;3.26;74.20;98634.97;5123181;27;20302;-60
2021/05/04 02:26:12;;;;;;;408.67;131.13;;;;;;;3.32;73.82;98635.88;5127774;27;20032;-61
2021/05/04 02:28:38;;;;;;;404.43;128.57;;;;;;;3.32;74.36;98635.88;5123364;27;20045;-61
2021/05/04 02:31:04;;;;;;;407.67;129.40;;;;;;;3.31;74.38;98626.56;5127430;27;20037;-61
2021/05/04 02:33:29;;;;;;;406.93;129.73;;;;;;;3.30;74.19;98622.38;5125974;27;20043;-61
2021/05/04 02:35:57;;;;;;;404.57;128.50;;;;;;;3.28;74.46;98621.50;5125578;27;20031;-61
2021/05/04 02:38:22;;;;;;;406.60;129.23;;;;;;;3.17;74.32;98621.41;5124679;27;20027;-61
2021/05/04 02:40:48;;;;;;;407.13;127.47;;;;;;;3.21;74.95;98615.53;5122762;27;20054;-61
2021/05/04 02:43:14;;;;;;;411.43;133.27;;;;;;;3.16;75.06;98618.84;5125634;27;20360;-61
2021/05/04 02:45:39;;;;;;;405.10;131.27;;;;;;;3.19;75.28;98618.84;5124113;27;20039;-61
2021/05/04 02:48:05;;;;;;;405.43;126.10;;;;;;;3.16;74.96;98611.25;5125402;27;20046;-60
2021/05/04 02:50:30;;;;;;;404.60;125.03;;;;;;;3.18;75.52;98607.88;5122501;27;20073;-61
2021/05/04 02:52:55;;;;;;;405.20;125.73;;;;;;;3.21;74.86;98604.53;5121457;27;20041;-62
2021/05/04 02:55:22;;;;;;;407.67;126.63;;;;;;;3.21;74.64;98607.06;5125127;27;20035;-62
2021/05/04 02:57:47;;;;;;;405.63;126.03;;;;;;;3.21;74.56;98604.53;5126287;27;20035;-62
2021/05/04 03:00:13;;;;;;;407.47;127.37;;;;;;;3.22;74.42;98606.25;5124770;27;20375;-62
2021/05/04 03:02:39;;;;;;;403.90;123.90;;;;;;;3.18;74.87;98602.00;5124057;27;20054;-62
2021/05/04 03:05:05;;;;;;;406.87;126.27;;;;;;;3.16;74.92;98596.91;5123093;27;20047;-62
2021/05/04 03:07:30;;;;;;;402.47;122.67;;;;;;;3.09;74.65;98594.28;5122939;27;20135;-61
2021/05/04 03:09:56;;;;;;;405.00;124.13;;;;;;;3.05;75.24;98593.41;5127128;27;20535;-62
2021/05/04 03:12:21;;;;;;;403.57;122.93;;;;;;;3.04;75.17;98583.25;5124247;27;20035;-61
2021/05/04 03:14:46;;;;;;;402.63;123.33;;;;;;;3.05;75.09;98585.81;5125037;27;20384;-61
2021/05/04 03:17:12;;;;;;;402.87;121.63;;;;;;;3.06;74.81;98584.13;5125043;27;20027;-62
2021/05/04 03:19:37;;;;;;;400.60;121.40;;;;;;;2.98;75.12;98578.13;5124018;27;20031;-60
2021/05/04 03:22:03;;;;;;;404.50;123.30;;;;;;;2.89;75.49;98570.44;5124335;27;20030;-61
2021/05/04 03:24:28;;;;;;;400.77;120.40;;;;;;;2.88;75.93;98573.81;5108347;27;20039;-62
2021/05/04 03:26:53;;;;;;;404.03;123.83;;;;;;;2.88;75.53;98567.09;5122838;27;20058;-62
2021/05/04 03:29:19;;;;;;;399.20;119.87;;;;;;;2.85;76.18;98561.09;5127028;27;20038;-61
2021/05/04 03:31:44;;;;;;;405.17;124.10;;;;;;;2.81;76.09;98557.69;5123542;27;20027;-60
2021/05/04 03:34:10;;;;;;;410.83;126.83;;;;;;;2.82;76.31;98556.03;5125491;27;20054;-61
2021/05/04 03:36:35;;;;;;;404.17;122.23;;;;;;;2.82;76.34;98548.44;5126097;27;20388;-61
2021/05/04 03:39:00;;;;;;;401.10;118.87;;;;;;;2.83;76.34;98535.81;5124752;27;20323;-61
2021/05/04 03:41:26;;;;;;;400.00;119.27;;;;;;;2.84;75.92;98540.03;5121632;27;20051;-60
2021/05/04 03:43:51;;;;;;;401.60;120.30;;;;;;;2.86;76.06;98538.34;5122841;27;20139;-60
2021/05/04 03:46:17;;;;;;;400.63;119.50;;;;;;;2.86;75.97;98530.75;5120084;27;20385;-61
2021/05/04 03:48:42;;;;;;;401.43;118.77;;;;;;;2.85;76.10;98533.25;5114590;27;20027;-61
2021/05/04 03:51:08;;;;;;;406.90;124.20;;;;;;;2.88;76.46;98524.03;5124242;27;20035;-62
2021/05/04 03:53:35;;;;;;;400.93;120.27;;;;;;;2.92;76.46;98525.78;5122359;27;20114;-61
2021/05/04 03:56:01;;;;;;;401.53;119.80;;;;;;;2.95;75.75;98514.81;5125079;27;20055;-60
2021/05/04 03:58:26;;;;;;;404.33;122.27;;;;;;;3.09;75.51;98520.84;5112592;28;20080;-61
2021/05/04 04:00:52;;;;;;;401.40;121.10;;;;;;;3.20;75.34;98524.31;5123134;27;20079;-61
2021/05/04 04:03:17;;;;;;;401.77;121.87;;;;;;;3.36;74.73;98521.06;5126127;27;20173;-60
2021/05/04 04:05:43;;;;;;;403.07;122.97;;;;;;;3.52;74.02;98519.50;5122168;27;20059;-61
2021/05/04 04:08:08;;;;;;;404.83;124.13;;;;;;;3.53;73.94;98508.50;5123008;27;20039;-60
2021/05/04 04:10:38;;;;;;;402.57;122.33;;;;;;;3.78;72.76;98517.97;5122607;27;20032;-62
2021/05/04 04:13:04;;;;;;;407.37;130.30;;;;;;;3.89;72.27;98520.59;5125558;27;20049;-62
2021/05/04 04:15:29;;;;;;;413.07;131.13;;;;;;;4.00;72.35;98518.94;5123460;28;20034;-60
2021/05/04 04:17:55;;;;;;;408.33;128.53;;;;;;;4.22;71.62;98523.28;5127048;27;20374;-61
2021/05/04 04:20:20;;;;;;;409.30;128.63;;;;;;;4.35;71.14;98517.41;5125405;28;20157;-61
2021/05/04 04:22:45;;;;;;;405.60;126.40;;;;;;;4.54;69.98;98514.06;5122993;28;20024;-61
2021/05/04 04:25:11;;;;;;;404.50;125.77;;;;;;;4.68;69.94;98503.97;5123783;28;20039;-61
2021/05/04 04:27:37;;;;;;;416.80;134.97;;;;;;;4.86;69.88;98519.25;5107078;28;20079;-61
2021/05/04 04:30:03;;;;;;;408.87;131.77;;;;;;;5.06;69.79;98506.56;5125486;28;20035;-61
2021/05/04 04:32:28;;;;;;;411.13;132.03;;;;;;;5.12;68.75;98505.72;5109001;28;20164;-61
2021/05/04 04:34:54;;;;;;;415.80;137.87;;;;;;;5.29;68.19;98504.88;5122812;28;20273;-61
2021/05/04 04:37:20;;;;;;;411.17;136.63;;;;;;;5.41;67.95;98509.97;5120286;28;20042;-61
2021/05/04 04:39:46;;;;;;;412.97;137.77;;;;;;;5.47;67.63;98511.66;5126326;27;20031;-61
2021/05/04 04:42:12;;;;;;;413.77;140.23;;;;;;;5.63;66.96;98507.41;5127602;27;20027;-60
2021/05/04 04:44:37;;;;;;;412.10;140.60;;;;;;;5.79;66.77;98511.59;5126188;27;20031;-60
2021/05/04 04:47:05;;;;;;;417.20;143.07;;;;;;;5.76;66.61;98512.47;5128440;27;20034;-62
2021/05/04 04:49:31;;;;;;;422.83;148.87;;;;;;;5.89;65.52;98508.25;5128167;27;20042;-61
2021/05/04 04:51:56;;;;;;;421.23;155.30;;;;;;;5.94;65.25;98498.91;5126345;27;20031;-62
2021/05/04 04:54:22;;;;;;;417.57;145.27;;;;;;;5.98;65.19;98496.31;5126874;27;20320;-60
2021/05/04 04:56:47;;;;;;;413.33;141.47;;;;;;;6.12;65.15;98490.34;5127784;27;20038;-62
2021/05/04 04:59:13;;;;;;;419.97;149.43;;;;;;;6.15;65.82;98493.75;5127446;27;20077;-62
2021/05/04 05:01:38;;;;;;;415.30;146.07;;;;;;;6.24;65.06;98477.56;5127693;27;20114;-62
2021/05/04 05:04:05;;;;;;;421.27;150.20;;;;;;;6.39;64.84;98475.81;5113638;27;20023;-61
2021/05/04 05:06:31;;;;;;;419.53;151.33;;;;;;;6.55;64.43;98485.91;5126527;27;20411;-61
2021/05/04 05:08:56;;;;;;;418.77;150.00;;;;;;;6.65;63.59;98478.22;5127525;27;20028;-61
2021/05/04 05:11:22;;;;;;;417.87;149.40;;;;;;;6.74;64.17;98479.88;5096201;28;20051;-61
2021/05/04 05:13:48;;;;;;;425.30;160.10;;;;;;;6.86;64.20;98479.78;5084320;28;20032;-62
2021/05/04 05:16:15;;;;;;;421.03;156.83;;;;;;;6.93;64.27;98481.41;5085243;28;20028;-61
2021/05/04 05:18:41;;;;;;;428.90;166.37;;;;;;;7.07;64.06;98482.19;5088111;28;20035;-61
2021/05/04 05:21:09;;;;;;;423.97;167.10;;;;;;;7.23;64.14;98473.53;5082505;28;20500;-61
2021/05/04 05:23:35;;;;;;;433.43;172.90;;;;;;;7.36;64.19;98474.28;5086193;28;20288;-61
2021/05/04 05:26:01;;;;;;;429.33;173.77;;;;;;;7.56;63.40;98472.38;5085070;28;20036;-60
2021/05/04 05:28:27;;;;;;;431.47;185.50;;;;;;;7.77;63.06;98473.88;5084613;28;20040;-61
2021/05/04 05:30:53;;;;;;;429.07;188.57;;;;;;;7.77;62.77;98461.97;5095078;28;20028;-60
2021/05/04 05:33:20;;;;;;;434.20;186.93;;;;;;;8.04;61.75;98459.97;5083632;28;20048;-60
2021/05/04 05:35:45;;;;;;;431.03;182.43;;;;;;;8.12;60.89;98463.28;5082832;28;20020;-61
2021/05/04 05:38:11;;;;;;;430.70;186.87;;;;;;;8.28;61.09;98465.63;5085348;28;20039;-62
2021/05/04 05:40:36;;;;;;;435.87;194.43;;;;;;;8.42;60.15;98462.94;5083914;28;20036;-62
2021/05/04 05:43:02;;;;;;;437.10;199.50;;;;;;;8.52;59.47;98449.19;5086778;28;20138;-60
2021/05/04 05:45:28;;;;;;;437.30;199.20;;;;;;;8.75;59.70;98453.09;5081282;28;20041;-60
2021/05/04 05:47:53;;;;;;;432.93;196.63;;;;;;;8.90;59.53;98445.22;5081746;28;20158;-60
2021/05/04 05:50:19;;;;;;;437.43;206.20;;;;;;;9.08;57.43;98445.75;5084641;28;20119;-60
2021/05/04 05:52:44;;;;;;;442.83;216.43;;;;;;;9.27;57.88;98450.59;5082410;28;20028;-63
2021/05/04 05:55:10;;;;;;;440.37;212.83;;;;;;;9.49;56.47;98437.41;5085140;28;20141;-60
2021/05/04 05:57:36;;;;;;;445.00;220.80;;;;;;;9.68;56.50;98437.91;5083528;28;20028;-60
2021/05/04 06:00:06;;;;;;;444.20;230.10;;;;;;;9.92;56.21;98437.44;5086738;28;20101;-60
2021/05/04 06:02:31;;;;;;;450.43;245.73;;;;;;;10.04;54.43;98437.22;5081569;28;20082;-61
2021/05/04 06:04:57;;;;;;;447.03;243.37;;;;;;;10.24;54.40;98434.25;5083824;28;20776;-61
2021/05/04 06:07:22;;;;;;;446.27;238.73;;;;;;;10.25;54.02;98430.84;5084471;28;20023;-61
2021/05/04 06:09:47;;;;;;;445.23;240.77;;;;;;;10.26;54.64;98429.13;5084404;28;20415;-61
2021/05/04 06:12:13;;;;;;;452.00;261.93;;;;;;;10.55;53.27;98424.19;5082615;28;20048;-61
2021/05/04 06:14:38;;;;;;;460.07;268.70;;;;;;;10.55;52.69;98419.06;5085710;28;20374;-61
2021/05/04 06:17:04;;;;;;;450.17;259.80;;;;;;;10.57;52.40;98416.47;5086538;28;20044;-60
2021/05/04 06:19:29;;;;;;;454.17;266.80;;;;;;;10.79;53.18;98412.53;5086213;28;20074;-60
2021/05/04 06:21:54;;;;;;;452.77;266.10;;;;;;;11.02;52.37;98412.00;5084871;28;20039;-62
2021/05/04 06:24:20;;;;;;;457.57;277.27;;;;;;;11.18;52.57;98414.16;5086116;28;20036;-63
2021/05/04 06:26:45;;;;;;;453.57;275.83;;;;;;;11.18;52.98;98403.03;5085037;28;20073;-62
2021/05/04 06:29:11;;;;;;;458.53;288.90;;;;;;;11.50;51.79;98409.94;5087624;28;20039;-62
2021/05/04 06:31:37;;;;;;;456.90;292.87;;;;;;;11.57;51.44;98409.72;5082984;28;20027;-62
2021/05/04 06:34:04;;;;;;;462.37;301.93;;;;;;;11.79;52.27;98410.88;5083659;28;20324;-62
2021/05/04 06:36:30;;;;;;;459.50;301.53;;;;;;;12.02;52.69;98417.06;5077269;28;20032;-62
2021/05/04 06:38:55;;;;;;;464.97;307.17;;;;;;;12.17;52.00;98403.81;5080930;28;20397;-62
2021/05/04 06:41:21;;;;;;;472.27;326.07;;;;;;;12.37;52.00;98406.63;5078933;28;20024;-61
2021/05/04 06:43:46;;;;;;;472.57;328.20;;;;;;;12.31;51.86;98404.22;5083834;28;20043;-62
2021/05/04 06:46:12;;;;;;;467.17;327.93;;;;;;;12.54;52.18;98412.09;5081261;28;20373;-61
2021/05/04 06:48:37;;;;;;;462.90;325.87;;;;;;;12.69;52.46;98406.47;5082992;28;20032;-61
2021/05/04 06:51:03;;;;;;;472.63;345.77;;;;;;;12.89;52.45;98399.88;5086343;28;20032;-61
2021/05/04 06:53:28;;;;;;;469.13;340.30;;;;;;;13.17;52.18;98395.53;5080174;28;20040;-61
2021/05/04 06:55:54;;;;;;;473.87;356.27;;;;;;;13.41;51.50;98399.03;5081220;28;20043;-61
2021/05/04 06:58:19;;;;;;;473.47;360.43;;;;;;;13.40;51.55;98394.78;5083313;28;20316;-62
2021/05/04 07:00:45;;;;;;;484.90;400.73;;;;;;;13.57;52.40;98398.47;5082538;28;20036;-62
2021/05/04 07:03:10;;;;;;;531.27;475.87;;;;;;;13.65;51.70;98400.75;5083089;28;20116;-62
2021/05/04 07:05:36;;;;;;;476.33;375.17;;;;;;;13.92;50.85;98394.63;5083796;28;20315;-61
2021/05/04 07:08:02;;;;;;;479.93;389.23;;;;;;;14.05;50.83;98395.00;5081315;28;20040;-61
2021/05/04 07:10:28;;;;;;;487.30;401.30;;;;;;;14.26;50.43;98385.66;5081109;28;20031;-62
2021/05/04 07:12:54;;;;;;;480.60;400.70;;;;;;;14.36;49.73;98377.53;5083681;28;20032;-61
2021/05/04 07:15:20;;;;;;;485.80;411.63;;;;;;;14.54;50.23;98378.56;5079253;28;20032;-61
2021/05/04 07:17:45;;;;;;;566.13;509.43;;;;;;;14.67;49.81;98374.63;5081865;28;20400;-61
2021/05/04 07:20:11;;;;;;;561.57;505.07;;;;;;;14.71;48.64;98370.16;5082150;28;20090;-61
2021/05/04 07:22:37;;;;;;;485.97;425.90;;;;;;;14.73;49.23;98364.03;5081645;28;20040;-61
2021/05/04 07:25:04;;;;;;;487.53;428.30;;;;;;;14.99;48.81;98368.16;5084497;28;20318;-61
2021/05/04 07:27:29;;;;;;;494.77;440.27;;;;;;;15.10;48.87;98363.41;5078200;28;20064;-61
2021/05/04 07:29:55;;;;;;;503.00;448.23;;;;;;;15.28;47.82;98349.69;5082636;28;20425;-61
2021/05/04 07:32:21;;;;;;;505.30;450.97;;;;;;;15.48;47.52;98354.03;5079945;28;20050;-61
2021/05/04 07:34:47;;;;;;;522.73;467.93;;;;;;;15.61;46.85;98346.63;5082764;28;20099;-61
2021/05/04 07:37:13;;;;;;;532.40;477.33;;;;;;;15.84;46.94;98334.34;5082626;28;20029;-61
2021/05/04 07:39:39;;;;;;;533.10;478.23;;;;;;;16.03;47.24;98336.94;5077325;28;20035;-61
2021/05/04 07:42:05;;;;;;;559.37;503.17;;;;;;;16.27;46.19;98333.22;5089960;28;20489;-61
2021/05/04 07:44:32;;;;;;;570.17;514.37;;;;;;;16.50;44.63;98324.38;5082891;28;20047;-62
2021/05/04 07:46:57;;;;;;;581.87;525.83;;;;;;;16.80;43.02;98324.69;5086734;28;20106;-61
2021/05/04 07:49:31;;;;;;;561.78;506.52;;;;;;;16.97;43.25;98326.44;5082402;28;20123;-62
2021/05/04 07:51:57;;;;;;;570.65;515.13;;;;;;;17.09;42.19;98320.66;5084392;28;20031;-62
2021/05/04 07:54:22;;;;;;;589.38;532.92;;;;;;;17.33;42.09;98319.41;5084646;28;20032;-62
2021/05/04 07:56:48;;;;;;;592.60;536.58;;;;;;;17.45;41.32;98315.34;5083500;28;20032;-62
2021/05/04 07:59:13;;;;;;;595.63;539.28;;;;;;;17.50;39.90;98316.78;5085135;28;20023;-62
2021/05/04 08:01:39;;;;;;;609.22;552.65;;;;;;;17.53;39.40;98313.19;5082076;28;20035;-62
2021/05/04 08:04:05;;;;;;;606.45;549.55;;;;;;;17.77;38.64;98307.59;5084687;28;20062;-62
2021/05/04 08:06:30;;;;;;;627.22;570.72;;;;;;;17.99;39.21;98309.84;5083019;28;20462;-62
2021/05/04 08:08:56;;;;;;;622.90;566.55;;;;;;;18.25;38.16;98311.88;5089743;28;20044;-62
2021/05/04 08:11:21;;;;;;;641.05;583.60;;;;;;;18.24;37.96;98304.19;5082118;28;20036;-62
2021/05/04 08:13:47;;;;;;;644.60;587.25;;;;;;;18.40;36.44;98304.19;5080882;28;20039;-63
2021/05/04 08:16:14;;;;;;;650.75;593.45;;;;;;;18.45;35.86;98303.00;5079248;28;20126;-62
2021/05/04 08:18:42;;;;;;;660.72;602.75;;;;;;;18.47;35.18;98293.34;5080122;28;20028;-63
2021/05/04 08:21:09;;;;;;;661.60;603.95;;;;;;;18.58;37.14;98288.44;5083496;28;20031;-63
2021/05/04 08:23:35;;;;;;;676.47;617.90;;;;;;;18.67;38.71;98281.91;5079051;28;20101;-62
2021/05/04 08:26:00;;;;;;;670.47;612.65;;;;;;;18.67;38.79;98292.28;5078455;28;20448;-62
2021/05/04 08:28:26;;;;;;;679.72;621.05;;;;;;;18.80;38.22;98287.22;5078514;28;20070;-63
2021/05/04 08:30:53;;;;;;;672.25;614.15;;;;;;;18.70;39.56;98282.56;5079789;28;20321;-62
2021/05/04 08:33:19;;;;;;;695.22;636.63;;;;;;;18.74;37.67;98282.38;5075697;28;20028;-62
2021/05/04 08:35:44;;;;;;;692.67;634.58;;;;;;;18.65;38.43;98281.97;5078684;28;20035;-62
2021/05/04 08:38:11;;;;;;;690.40;632.28;;;;;;;18.82;38.24;98274.97;5088955;28;20185;-62
2021/05/04 08:40:36;;;;;;;693.13;635.33;;;;;;;18.87;36.02;98273.78;5077808;28;22204;-62
2021/05/04 08:43:01;;;;;;;698.83;640.72;;;;;;;18.89;37.73;98282.31;5076212;28;20033;-61
2021/05/04 08:45:32;;;;;;;688.55;630.78;;;;;;;18.98;37.04;98276.56;5076266;28;20129;-61
2021/05/04 08:47:57;;;;;;;692.08;634.05;;;;;;;18.99;35.26;98274.81;5078924;28;20040;-63
2021/05/04 08:50:23;;;;;;;697.35;638.92;;;;;;;19.02;34.98;98278.06;5080664;28;20054;-63
2021/05/04 08:52:49;;;;;;;687.63;630.05;;;;;;;19.05;34.69;98274.47;5081236;28;20082;-63
2021/05/04 08:55:16;;;;;;;702.70;644.70;;;;;;;19.18;34.73;98278.84;5078868;28;20111;-63
2021/05/04 08:57:41;;;;;;;703.45;644.97;;;;;;;19.25;32.81;98265.47;5081035;28;20374;-63
2021/05/04 09:00:09;;;;;;;701.22;643.03;;;;;;;19.30;32.10;98266.06;5081608;28;20024;-62
2021/05/04 09:03:06;;;;;;;724.53;665.28;;;;;;;19.39;33.95;98262.91;5082529;28;20032;-62
2021/05/04 09:05:36;;;;;;;704.00;645.92;;;;;;;19.39;34.06;98257.69;5081245;28;20048;-62
2021/05/04 09:08:07;;;;;;;722.50;663.97;;;;;;;19.49;33.57;98254.47;5080352;28;20064;-62
2021/05/04 09:10:46;;;;;;;706.08;647.72;;;;;;;19.52;35.00;98246.47;5083525;28;20029;-62
2021/05/04 09:13:20;;;;;;;723.35;663.83;;;;;;;19.54;34.27;98249.00;5080105;28;20032;-62
2021/05/04 09:21:11;;;;;;;719.75;661.22;;;;;;;19.81;34.78;98249.91;5081746;28;20024;-62
2021/05/04 09:23:42;;;;;;;744.45;685.25;;;;;;;20.14;32.64;98246.09;5081027;28;20024;-61
2021/05/04 09:26:22;;;;;;;735.03;676.28;;;;;;;19.96;32.81;98237.69;5085144;28;20049;-61
2021/05/04 09:28:49;;;;;;;724.13;665.40;;;;;;;20.23;31.72;98237.69;5084169;28;20044;-61
2021/05/04 09:31:22;;;;;;;742.08;682.65;;;;;;;20.22;33.53;98236.03;5087365;28;20070;-61
2021/05/04 09:33:47;;;;;;;730.60;671.58;;;;;;;20.23;31.94;98220.31;5088728;28;20297;-61
2021/05/04 09:36:38;;;;;;;745.97;686.83;;;;;;;20.29;31.99;98225.13;5084638;28;20020;-62
2021/05/04 09:39:05;;;;;;;744.75;685.58;;;;;;;20.31;32.46;98218.06;5087769;28;20032;-61
2021/05/04 09:41:31;;;;;;;754.90;695.63;;;;;;;20.34;32.00;98219.63;5085186;28;20032;-61
2021/05/04 09:43:57;;;;;;;754.97;695.65;;;;;;;20.44;33.89;98223.31;5083690;28;20035;-61
2021/05/04 09:47:01;;;;;;;745.80;686.90;;;;;;;20.58;32.37;98212.00;5086005;28;20320;-61
2021/05/04 09:49:28;;;;;;;762.17;702.45;;;;;;;20.48;34.98;98201.34;5037491;28;20039;-61
2021/05/04 09:55:09;;;;;;;766.20;706.42;;;;;;;20.60;34.13;98189.28;5054357;28;20052;-61
2021/05/04 09:57:41;;;;;;;764.83;705.03;;;;;;;20.70;34.15;98188.56;5054351;28;20032;-61
2021/05/04 10:00:08;;;;;;;781.33;721.25;;;;;;;20.97;35.59;98181.47;5053492;28;20418;-61
2021/05/04 10:02:35;;;;;;;770.45;710.78;;;;;;;20.89;33.50;98173.34;5055170;28;20025;-61
2021/05/04 10:05:01;;;;;;;772.28;712.30;;;;;;;20.88;33.85;98176.88;5052782;28;20129;-61
2021/05/04 10:07:29;;;;;;;780.05;720.03;;;;;;;20.85;34.04;98171.91;5054729;28;20390;-61
2021/05/04 10:09:55;;;;;;;780.47;719.75;;;;;;;20.89;35.17;98165.53;5053145;28;20040;-61
2021/05/04 10:12:21;;;;;;;786.90;726.90;;;;;;;21.10;35.36;98162.38;5054975;28;20086;-61
2021/05/04 10:14:49;;;;;;;782.55;722.28;;;;;;;21.19;33.28;98164.41;5053564;28;20361;-61
2021/05/04 10:17:19;;;;;;;792.42;732.33;;;;;;;21.28;32.57;98161.16;5053668;28;20382;-61
2021/05/04 10:19:45;;;;;;;796.75;736.13;;;;;;;21.22;31.87;98156.34;5062436;28;20048;-61
2021/05/04 10:22:13;;;;;;;807.70;746.92;;;;;;;21.45;32.16;98155.59;5081705;28;20021;-61
2021/05/04 10:24:40;;;;;;;800.22;739.65;;;;;;;21.39;31.61;98151.63;5083095;28;20078;-61
2021/05/04 10:27:08;;;;;;;809.00;748.35;;;;;;;21.42;30.99;98135.78;5085795;28;20078;-61
2021/05/04 10:29:37;;;;;;;801.85;741.17;;;;;;;21.55;31.29;98140.97;5098508;28;20397;-61
2021/05/04 10:32:03;;;;;;;811.10;750.33;;;;;;;21.52;30.89;98135.94;5084328;28;20389;-62
2021/05/04 10:34:31;;;;;;;809.25;748.47;;;;;;;21.77;30.81;98119.34;5082409;28;20036;-62
2021/05/04 10:37:02;;;;;;;805.95;745.33;;;;;;;21.88;29.45;98127.25;5093458;28;20024;-62
2021/05/04 10:39:41;;;;;;;816.95;755.92;;;;;;;21.96;29.13;98118.91;5084746;28;20029;-62
2021/05/04 10:42:10;;;;;;;814.97;754.20;;;;;;;22.11;28.46;98113.38;5084026;28;20297;-61
2021/05/04 10:44:54;;;;;;;820.72;759.53;;;;;;;22.24;29.18;98116.75;5081349;28;20313;-62
2021/05/04 10:47:44;;;;;;;815.88;754.38;;;;;;;22.31;27.62;98111.91;5081089;28;20029;-62
2021/05/04 10:50:14;;;;;;;836.80;774.72;;;;;;;22.30;25.85;98108.47;5083029;28;20043;-61
2021/05/04 10:52:49;;;;;;;830.83;769.50;;;;;;;22.52;26.17;98097.22;5081391;28;20107;-61
2021/05/04 10:55:15;;;;;;;828.17;766.88;;;;;;;22.22;25.42;98089.91;5083168;28;20377;-62
2021/05/04 10:58:05;;;;;;;831.90;769.72;;;;;;;22.29;24.58;98088.50;5081968;28;20039;-62
2021/05/04 11:00:53;;;;;;;820.75;759.38;;;;;;;22.76;23.80;98084.94;5081710;28;20032;-62
2021/05/04 11:03:31;;;;;;;843.90;781.90;;;;;;;22.44;26.22;98081.31;5091979;28;20040;-62
2021/05/04 11:05:58;;;;;;;834.22;772.50;;;;;;;22.60;26.76;98075.75;5081206;28;20465;-62
2021/05/04 11:08:24;;;;;;;845.78;783.60;;;;;;;22.52;26.91;98068.50;5084022;28;20103;-62
2021/05/04 11:11:28;;;;;;;846.45;784.40;;;;;;;22.69;28.27;98075.06;5080508;28;20028;-62
2021/05/04 11:14:04;;;;;;;843.25;781.25;;;;;;;22.91;27.62;98055.94;5082862;28;20025;-62